Vasiliy Bozhenko — URHP — position and weather

sailwx.info

Track history (hours):
 
Tides and Currents Weather Stations Pressure Air Temp Water Temp Dewpoint Dewpoint Depression Visibility Wind Speed Wind Dir Waves Ship Positions

Vasiliy Bozhenko

Last reported at 2015-Feb-28 01:12 UTC. Time now 2015-Mar-03 00:36 UTC.
Position N 46°36' E 031°38'.

Length 114 m; draft 3.8 m.

Type: Cargo ship. MMSI: 272085000.

Date/timePositionNaut miles runAvg speedWind from/ knotsBaromVisibWave heightAir tempDewpointWater temp
2015-Feb-28 01:12N 46°36' E 031°38'5 7.8
2015-Feb-28 00:33N 46°36' E 031°46'8 7.7
2015-Feb-27 23:33N 46°39' E 031°56'7 7.0
2015-Feb-27 22:33N 46°46' E 031°53'7 6.9
2015-Feb-27 21:34N 46°52' E 031°58'4 4.1
2015-Feb-27 20:34N 46°56' E 031°59'1 1.2
2015-Feb-27 19:33N 46°56' E 031°57'0 0.0
2015-Feb-27 18:31N 46°56' E 031°57'0 0.0
2015-Feb-27 17:31N 46°56' E 031°57'0 0.0
2015-Feb-27 16:32N 46°56' E 031°57'0 0.0
2015-Feb-27 15:32N 46°56' E 031°57'0 0.0
2015-Feb-27 14:33N 46°56' E 031°57'0 0.0
2015-Feb-27 13:33N 46°56' E 031°57'0 0.0
2015-Feb-27 12:33N 46°56' E 031°57'0 0.0
2015-Feb-27 11:32N 46°56' E 031°57'0 0.0
2015-Feb-27 10:30N 46°56' E 031°57'0 0.0
2015-Feb-27 09:30N 46°56' E 031°57'0 0.0
2015-Feb-27 08:32N 46°56' E 031°57'0 0.0
2015-Feb-27 07:27N 46°56' E 031°57'0 0.0
2015-Feb-27 06:33N 46°56' E 031°57'0 0.0
2015-Feb-27 05:31N 46°56' E 031°57'0 0.0
2015-Feb-27 04:32N 46°56' E 031°57'0 0.0
2015-Feb-27 03:29N 46°56' E 031°57'0 0.0
2015-Feb-27 02:32N 46°56' E 031°57'0 0.0
2015-Feb-27 01:31N 46°56' E 031°57'0 0.0
2015-Feb-27 00:30N 46°56' E 031°57'0 0.0
2015-Feb-26 23:33N 46°56' E 031°57'0 0.0
2015-Feb-26 22:29N 46°56' E 031°57'0 0.0
2015-Feb-26 21:32N 46°56' E 031°57'0 0.0
2015-Feb-26 20:32N 46°56' E 031°57'0 0.0
2015-Feb-26 19:31N 46°56' E 031°57'0 0.0
2015-Feb-26 18:32N 46°56' E 031°57'0 0.0
2015-Feb-26 17:32N 46°56' E 031°57'0 0.0
2015-Feb-26 16:33N 46°56' E 031°57'0 0.0
2015-Feb-26 15:32N 46°56' E 031°57'0 0.0
2015-Feb-26 14:32N 46°56' E 031°57'0 0.0
2015-Feb-26 13:29N 46°56' E 031°57'0 0.0
2015-Feb-26 12:31N 46°56' E 031°57'0 0.0
2015-Feb-26 11:33N 46°56' E 031°57'0 0.0
2015-Feb-26 10:32N 46°56' E 031°57'0 0.0
2015-Feb-26 09:32N 46°56' E 031°57'0 0.0
2015-Feb-26 08:32N 46°56' E 031°57'0 0.0
2015-Feb-26 07:32N 46°56' E 031°57'0 0.0
2015-Feb-26 06:31N 46°56' E 031°57'0 0.0
2015-Feb-26 05:33N 46°56' E 031°57'0 0.0
2015-Feb-26 04:33N 46°56' E 031°57'0 0.0
2015-Feb-26 03:33N 46°56' E 031°57'0 0.0
2015-Feb-26 02:33N 46°56' E 031°57'0 0.0
2015-Feb-26 01:31N 46°56' E 031°57'0 0.0
2015-Feb-26 00:31N 46°56' E 031°57'0 0.0
2015-Feb-25 23:33N 46°56' E 031°57'0 0.0
2015-Feb-25 22:31N 46°56' E 031°57'0 0.0
2015-Feb-25 21:32N 46°56' E 031°57'0 0.0
2015-Feb-25 20:33N 46°56' E 031°57'0 0.0
2015-Feb-25 19:32N 46°56' E 031°57'0 0.0
2015-Feb-25 18:31N 46°56' E 031°57'0 0.0
2015-Feb-25 17:27N 46°56' E 031°57'0 0.0
2015-Feb-25 16:32N 46°56' E 031°57'0 0.0
2015-Feb-25 15:32N 46°56' E 031°57'0 0.0
2015-Feb-25 14:33N 46°56' E 031°57'0 0.0
2015-Feb-25 13:31N 46°56' E 031°57'0 0.0
2015-Feb-25 12:33N 46°56' E 031°57'0 0.0
2015-Feb-25 11:31N 46°56' E 031°57'0 0.0
2015-Feb-25 10:27N 46°56' E 031°57'0 0.0
2015-Feb-25 09:31N 46°56' E 031°57'0 0.0
2015-Feb-25 08:33N 46°56' E 031°57'0 0.0
2015-Feb-25 07:32N 46°56' E 031°57'0 0.0
2015-Feb-25 06:32N 46°56' E 031°57'0 0.0
2015-Feb-25 05:32N 46°56' E 031°57'0 0.0
2015-Feb-25 04:33N 46°56' E 031°57'0 0.0
2015-Feb-25 03:33N 46°56' E 031°57'0 0.0
2015-Feb-25 02:31N 46°56' E 031°57'0 0.0
2015-Feb-25 01:32N 46°56' E 031°57'0 0.0
2015-Feb-25 00:32N 46°56' E 031°57'0 0.0
2015-Feb-24 23:33N 46°56' E 031°57'0 0.0
2015-Feb-24 22:31N 46°56' E 031°57'0 0.0
2015-Feb-24 21:32N 46°56' E 031°57'0 0.0
2015-Feb-24 20:27N 46°56' E 031°57'0 0.0
2015-Feb-24 19:31N 46°56' E 031°57'0 0.0
2015-Feb-24 18:32N 46°56' E 031°57'0 0.0
2015-Feb-24 17:31N 46°56' E 031°57'0 0.0
2015-Feb-24 16:27N 46°56' E 031°57'0 0.0
2015-Feb-24 15:32N 46°56' E 031°57'0 0.0
2015-Feb-24 14:33N 46°56' E 031°57'0 0.0
2015-Feb-24 13:30N 46°56' E 031°57'0 0.0
2015-Feb-24 12:28N 46°56' E 031°57'0 0.0
2015-Feb-24 11:31N 46°56' E 031°57'0 0.0
2015-Feb-24 10:33N 46°56' E 031°57'0 0.0
2015-Feb-24 09:32N 46°56' E 031°57'1 0.8
2015-Feb-24 08:29N 46°56' E 031°56'0 0.0
2015-Feb-24 07:33N 46°56' E 031°56'0 0.1
2015-Feb-24 06:32N 46°56' E 031°57'0 0.0
2015-Feb-24 05:33N 46°56' E 031°57'0 0.0
2015-Feb-24 04:33N 46°56' E 031°57'0 0.0
2015-Feb-24 03:31N 46°56' E 031°56'0 0.0
2015-Feb-24 02:31N 46°56' E 031°56'0 0.0
2015-Feb-24 01:31N 46°56' E 031°56'0 0.0
2015-Feb-24 00:32N 46°56' E 031°56'0 0.0
2015-Feb-23 23:31N 46°56' E 031°56'0 0.0
2015-Feb-23 22:30N 46°56' E 031°56'0 0.0
2015-Feb-23 21:32N 46°56' E 031°56'0 0.0
2015-Feb-23 20:32N 46°56' E 031°56'0 0.1
2015-Feb-23 19:28N 46°56' E 031°57'0 0.0
2015-Feb-23 18:32N 46°56' E 031°57'0 0.1
2015-Feb-23 17:32N 46°56' E 031°56'0 0.1
2015-Feb-23 16:32N 46°56' E 031°57'0 0.1
2015-Feb-23 15:32N 46°56' E 031°57'0 0.1
2015-Feb-23 14:32N 46°56' E 031°57'0 0.0
2015-Feb-23 13:32N 46°56' E 031°57'0 0.1
2015-Feb-23 12:33N 46°56' E 031°56'0 0.0
2015-Feb-23 11:33N 46°56' E 031°56'0 0.0
2015-Feb-23 10:32N 46°56' E 031°56'0 0.0
2015-Feb-23 09:33N 46°56' E 031°56'1 0.7
2015-Feb-23 08:33N 46°56' E 031°57'4 3.9
2015-Feb-23 07:34N 46°52' E 031°58'7 7.3
2015-Feb-23 06:33N 46°45' E 031°54'7 6.6
2015-Feb-23 05:33N 46°38' E 031°55'7 6.8
2015-Feb-23 04:32N 46°36' E 031°46'2 2.1
2015-Feb-23 03:33N 46°36' E 031°43'0 0.0
2015-Feb-23 02:15N 46°36' E 031°43'0 0.0
2015-Feb-23 01:11N 46°36' E 031°43'0 0.0
2015-Feb-23 00:31N 46°36' E 031°43'0 0.0
2015-Feb-22 23:31N 46°36' E 031°43'0 0.0
2015-Feb-22 22:27N 46°36' E 031°43'0 0.0
2015-Feb-22 21:14N 46°36' E 031°43'0 0.0
2015-Feb-22 18:31N 46°36' E 031°43'0 0.0
2015-Feb-22 17:33N 46°36' E 031°43'0 0.0
2015-Feb-22 16:33N 46°36' E 031°43'0 0.0
2015-Feb-22 15:34N 46°36' E 031°43'0 0.0
2015-Feb-22 14:34N 46°36' E 031°43'  
Track history (hours):
 
Tides and Currents Weather Stations Pressure Air Temp Water Temp Dewpoint Dewpoint Depression Visibility Wind Speed Wind Dir Waves Ship Positions

Vasiliy Bozhenko

Last reported at 2015-Feb-28 01:12 UTC. Time now 2015-Mar-03 00:36 UTC.
Position N 46°36' E 031°38'.

Length 114 m; draft 3.8 m.

Type: Cargo ship. MMSI: 272085000.

Date/timePositionNaut miles runAvg speedWind from/ knotsBaromVisibWave heightAir tempDewpointWater temp
2015-Feb-28 01:12N 46°36' E 031°38'5 7.8
2015-Feb-28 00:33N 46°36' E 031°46'8 7.7
2015-Feb-27 23:33N 46°39' E 031°56'7 7.0
2015-Feb-27 22:33N 46°46' E 031°53'7 6.9
2015-Feb-27 21:34N 46°52' E 031°58'4 4.1
2015-Feb-27 20:34N 46°56' E 031°59'1 1.2
2015-Feb-27 19:33N 46°56' E 031°57'0 0.0
2015-Feb-27 18:31N 46°56' E 031°57'0 0.0
2015-Feb-27 17:31N 46°56' E 031°57'0 0.0
2015-Feb-27 16:32N 46°56' E 031°57'0 0.0
2015-Feb-27 15:32N 46°56' E 031°57'0 0.0
2015-Feb-27 14:33N 46°56' E 031°57'0 0.0
2015-Feb-27 13:33N 46°56' E 031°57'0 0.0
2015-Feb-27 12:33N 46°56' E 031°57'0 0.0
2015-Feb-27 11:32N 46°56' E 031°57'0 0.0
2015-Feb-27 10:30N 46°56' E 031°57'0 0.0
2015-Feb-27 09:30N 46°56' E 031°57'0 0.0
2015-Feb-27 08:32N 46°56' E 031°57'0 0.0
2015-Feb-27 07:27N 46°56' E 031°57'0 0.0
2015-Feb-27 06:33N 46°56' E 031°57'0 0.0
2015-Feb-27 05:31N 46°56' E 031°57'0 0.0
2015-Feb-27 04:32N 46°56' E 031°57'0 0.0
2015-Feb-27 03:29N 46°56' E 031°57'0 0.0
2015-Feb-27 02:32N 46°56' E 031°57'0 0.0
2015-Feb-27 01:31N 46°56' E 031°57'0 0.0
2015-Feb-27 00:30N 46°56' E 031°57'0 0.0
2015-Feb-26 23:33N 46°56' E 031°57'0 0.0
2015-Feb-26 22:29N 46°56' E 031°57'0 0.0
2015-Feb-26 21:32N 46°56' E 031°57'0 0.0
2015-Feb-26 20:32N 46°56' E 031°57'0 0.0
2015-Feb-26 19:31N 46°56' E 031°57'0 0.0
2015-Feb-26 18:32N 46°56' E 031°57'0 0.0
2015-Feb-26 17:32N 46°56' E 031°57'0 0.0
2015-Feb-26 16:33N 46°56' E 031°57'0 0.0
2015-Feb-26 15:32N 46°56' E 031°57'0 0.0
2015-Feb-26 14:32N 46°56' E 031°57'0 0.0
2015-Feb-26 13:29N 46°56' E 031°57'0 0.0
2015-Feb-26 12:31N 46°56' E 031°57'0 0.0
2015-Feb-26 11:33N 46°56' E 031°57'0 0.0
2015-Feb-26 10:32N 46°56' E 031°57'0 0.0
2015-Feb-26 09:32N 46°56' E 031°57'0 0.0
2015-Feb-26 08:32N 46°56' E 031°57'0 0.0
2015-Feb-26 07:32N 46°56' E 031°57'0 0.0
2015-Feb-26 06:31N 46°56' E 031°57'0 0.0
2015-Feb-26 05:33N 46°56' E 031°57'0 0.0
2015-Feb-26 04:33N 46°56' E 031°57'0 0.0
2015-Feb-26 03:33N 46°56' E 031°57'0 0.0
2015-Feb-26 02:33N 46°56' E 031°57'0 0.0
2015-Feb-26 01:31N 46°56' E 031°57'0 0.0
2015-Feb-26 00:31N 46°56' E 031°57'0 0.0
2015-Feb-25 23:33N 46°56' E 031°57'0 0.0
2015-Feb-25 22:31N 46°56' E 031°57'0 0.0
2015-Feb-25 21:32N 46°56' E 031°57'0 0.0
2015-Feb-25 20:33N 46°56' E 031°57'0 0.0
2015-Feb-25 19:32N 46°56' E 031°57'0 0.0
2015-Feb-25 18:31N 46°56' E 031°57'0 0.0
2015-Feb-25 17:27N 46°56' E 031°57'0 0.0
2015-Feb-25 16:32N 46°56' E 031°57'0 0.0
2015-Feb-25 15:32N 46°56' E 031°57'0 0.0
2015-Feb-25 14:33N 46°56' E 031°57'0 0.0
2015-Feb-25 13:31N 46°56' E 031°57'0 0.0
2015-Feb-25 12:33N 46°56' E 031°57'0 0.0
2015-Feb-25 11:31N 46°56' E 031°57'0 0.0
2015-Feb-25 10:27N 46°56' E 031°57'0 0.0
2015-Feb-25 09:31N 46°56' E 031°57'0 0.0
2015-Feb-25 08:33N 46°56' E 031°57'0 0.0
2015-Feb-25 07:32N 46°56' E 031°57'0 0.0
2015-Feb-25 06:32N 46°56' E 031°57'0 0.0
2015-Feb-25 05:32N 46°56' E 031°57'0 0.0
2015-Feb-25 04:33N 46°56' E 031°57'0 0.0
2015-Feb-25 03:33N 46°56' E 031°57'0 0.0
2015-Feb-25 02:31N 46°56' E 031°57'0 0.0
2015-Feb-25 01:32N 46°56' E 031°57'0 0.0
2015-Feb-25 00:32N 46°56' E 031°57'0 0.0
2015-Feb-24 23:33N 46°56' E 031°57'0 0.0
2015-Feb-24 22:31N 46°56' E 031°57'0 0.0
2015-Feb-24 21:32N 46°56' E 031°57'0 0.0
2015-Feb-24 20:27N 46°56' E 031°57'0 0.0
2015-Feb-24 19:31N 46°56' E 031°57'0 0.0
2015-Feb-24 18:32N 46°56' E 031°57'0 0.0
2015-Feb-24 17:31N 46°56' E 031°57'0 0.0
2015-Feb-24 16:27N 46°56' E 031°57'0 0.0
2015-Feb-24 15:32N 46°56' E 031°57'0 0.0
2015-Feb-24 14:33N 46°56' E 031°57'0 0.0
2015-Feb-24 13:30N 46°56' E 031°57'0 0.0
2015-Feb-24 12:28N 46°56' E 031°57'0 0.0
2015-Feb-24 11:31N 46°56' E 031°57'0 0.0
2015-Feb-24 10:33N 46°56' E 031°57'0 0.0
2015-Feb-24 09:32N 46°56' E 031°57'1 0.8
2015-Feb-24 08:29N 46°56' E 031°56'0 0.0
2015-Feb-24 07:33N 46°56' E 031°56'0 0.1
2015-Feb-24 06:32N 46°56' E 031°57'0 0.0
2015-Feb-24 05:33N 46°56' E 031°57'0 0.0
2015-Feb-24 04:33N 46°56' E 031°57'0 0.0
2015-Feb-24 03:31N 46°56' E 031°56'0 0.0
2015-Feb-24 02:31N 46°56' E 031°56'0 0.0
2015-Feb-24 01:31N 46°56' E 031°56'0 0.0
2015-Feb-24 00:32N 46°56' E 031°56'0 0.0
2015-Feb-23 23:31N 46°56' E 031°56'0 0.0
2015-Feb-23 22:30N 46°56' E 031°56'0 0.0
2015-Feb-23 21:32N 46°56' E 031°56'0 0.0
2015-Feb-23 20:32N 46°56' E 031°56'0 0.1
2015-Feb-23 19:28N 46°56' E 031°57'0 0.0
2015-Feb-23 18:32N 46°56' E 031°57'0 0.1
2015-Feb-23 17:32N 46°56' E 031°56'0 0.1
2015-Feb-23 16:32N 46°56' E 031°57'0 0.1
2015-Feb-23 15:32N 46°56' E 031°57'0 0.1
2015-Feb-23 14:32N 46°56' E 031°57'0 0.0
2015-Feb-23 13:32N 46°56' E 031°57'0 0.1
2015-Feb-23 12:33N 46°56' E 031°56'0 0.0
2015-Feb-23 11:33N 46°56' E 031°56'0 0.0
2015-Feb-23 10:32N 46°56' E 031°56'0 0.0
2015-Feb-23 09:33N 46°56' E 031°56'1 0.7
2015-Feb-23 08:33N 46°56' E 031°57'4 3.9
2015-Feb-23 07:34N 46°52' E 031°58'7 7.3
2015-Feb-23 06:33N 46°45' E 031°54'7 6.6
2015-Feb-23 05:33N 46°38' E 031°55'7 6.8
2015-Feb-23 04:32N 46°36' E 031°46'2 2.1
2015-Feb-23 03:33N 46°36' E 031°43'0 0.0
2015-Feb-23 02:15N 46°36' E 031°43'0 0.0
2015-Feb-23 01:11N 46°36' E 031°43'0 0.0
2015-Feb-23 00:31N 46°36' E 031°43'0 0.0
2015-Feb-22 23:31N 46°36' E 031°43'0 0.0
2015-Feb-22 22:27N 46°36' E 031°43'0 0.0
2015-Feb-22 21:14N 46°36' E 031°43'0 0.0
2015-Feb-22 18:31N 46°36' E 031°43'0 0.0
2015-Feb-22 17:33N 46°36' E 031°43'0 0.0
2015-Feb-22 16:33N 46°36' E 031°43'0 0.0
2015-Feb-22 15:34N 46°36' E 031°43'0 0.0
2015-Feb-22 14:34N 46°36' E 031°43'  

Dump ship's entire track history